createdAt,value
2022-11-14T00:01:52.598Z,9.63
2022-11-14T00:04:20.137Z,9.26
2022-11-14T00:06:47.976Z,9.39
2022-11-14T00:09:15.386Z,9.81
2022-11-14T00:11:42.791Z,9.86
2022-11-14T00:14:10.845Z,9.55
2022-11-14T00:16:38.237Z,8.78
2022-11-14T00:19:06.932Z,8.55
2022-11-14T00:21:34.324Z,8.46
2022-11-14T00:24:01.722Z,8.43
2022-11-14T00:26:29.196Z,8.48
2022-11-14T00:28:56.897Z,8.42
2022-11-14T00:31:24.282Z,9.21
2022-11-14T00:33:51.720Z,8.53
2022-11-14T00:36:20.502Z,8.58
2022-11-14T00:38:47.907Z,8.96
2022-11-14T00:41:15.349Z,8.88
2022-11-14T00:43:42.750Z,8.99
2022-11-14T00:46:10.189Z,9.32
2022-11-14T00:48:37.684Z,9.37
2022-11-14T00:51:05.276Z,8.98
2022-11-14T00:53:33.996Z,8.60
2022-11-14T00:56:01.883Z,8.59
2022-11-14T00:58:29.586Z,8.77
2022-11-14T01:00:57.435Z,8.12
2022-11-14T01:03:24.955Z,8.61
2022-11-14T01:05:52.641Z,8.75
2022-11-14T01:08:20.941Z,8.36
2022-11-14T01:10:51.794Z,8.83
2022-11-14T01:13:19.941Z,8.86
2022-11-14T01:15:49.316Z,8.99
2022-11-14T01:18:19.462Z,8.37
2022-11-14T01:20:48.759Z,7.93
2022-11-14T01:23:17.585Z,8.59
2022-11-14T01:25:45.355Z,7.93
2022-11-14T01:28:16.604Z,8.35
2022-11-14T01:30:44.213Z,8.34
2022-11-14T01:33:11.725Z,8.64
2022-11-14T01:35:40.055Z,8.54
2022-11-14T01:38:07.520Z,8.57
2022-11-14T01:40:35.108Z,8.69
2022-11-14T01:43:38.522Z,8.07
2022-11-14T01:46:07.403Z,8.21
2022-11-14T01:48:40.782Z,8.34
2022-11-14T01:51:20.674Z,8.39
2022-11-14T01:53:50.612Z,8.71
2022-11-14T01:56:21.730Z,8.51
2022-11-14T01:58:55.162Z,8.68
2022-11-14T02:01:23.105Z,8.90
2022-11-14T02:03:53.996Z,9.04
2022-11-14T02:06:23.461Z,8.87
2022-11-14T02:08:52.432Z,8.94
2022-11-14T02:11:19.834Z,8.40
2022-11-14T02:13:47.303Z,8.52
2022-11-14T02:16:16.209Z,8.08
2022-11-14T02:18:43.613Z,8.01
2022-11-14T02:21:12.362Z,8.06
2022-11-14T02:23:39.792Z,8.74
2022-11-14T02:26:07.184Z,8.11
2022-11-14T02:28:34.554Z,8.27
2022-11-14T02:31:01.980Z,8.35
2022-11-14T02:33:29.362Z,8.56
2022-11-14T02:35:56.778Z,8.29
2022-11-14T02:38:25.579Z,8.86
2022-11-14T02:40:53.012Z,9.22
2022-11-14T02:43:20.408Z,8.34
2022-11-14T02:45:47.840Z,8.50
2022-11-14T02:48:15.278Z,8.75
2022-11-14T02:50:42.837Z,9.05
2022-11-14T02:53:10.455Z,8.60
2022-11-14T02:55:39.170Z,8.41
2022-11-14T02:58:07.440Z,8.95
2022-11-14T03:00:35.491Z,9.05
2022-11-14T03:03:04.160Z,8.59
2022-11-14T03:05:31.631Z,9.02
2022-11-14T03:07:59.052Z,9.39
2022-11-14T03:10:26.639Z,9.50
2022-11-14T03:12:56.329Z,8.96
2022-11-14T03:15:24.315Z,8.95
2022-11-14T03:17:51.988Z,9.01
2022-11-14T03:20:19.877Z,8.90
2022-11-14T03:22:47.250Z,8.94
2022-11-14T03:25:14.635Z,9.30
2022-11-14T03:27:42.010Z,9.24
2022-11-14T03:30:12.439Z,8.59
2022-11-14T03:32:39.867Z,8.49
2022-11-14T03:35:08.712Z,8.77
2022-11-14T03:37:36.283Z,9.34
2022-11-14T03:40:04.190Z,9.12
2022-11-14T03:42:34.233Z,8.40
2022-11-14T03:45:02.198Z,8.31
2022-11-14T03:47:30.906Z,8.32
2022-11-14T03:49:58.281Z,7.82
2022-11-14T03:52:26.729Z,8.33
2022-11-14T03:54:54.118Z,9.04
2022-11-14T03:57:21.512Z,8.67
2022-11-14T03:59:48.903Z,9.03
2022-11-14T04:02:16.309Z,9.19
2022-11-14T04:04:45.036Z,9.53
2022-11-14T04:07:12.504Z,8.86
2022-11-14T04:09:39.982Z,8.88
2022-11-14T04:12:10.116Z,8.98
2022-11-14T04:14:41.744Z,9.12
2022-11-14T04:17:09.180Z,9.36
2022-11-14T04:19:36.773Z,8.87
2022-11-14T04:22:06.294Z,8.63
2022-11-14T04:24:33.673Z,8.24
2022-11-14T04:27:01.065Z,7.96
2022-11-14T04:29:28.467Z,7.78
2022-11-14T04:31:55.909Z,8.58
2022-11-14T04:34:23.312Z,8.81
2022-11-14T04:36:51.293Z,8.40
2022-11-14T04:39:20.047Z,8.87
2022-11-14T04:41:47.423Z,8.93
2022-11-14T04:44:14.805Z,8.69
2022-11-14T04:46:42.201Z,9.16
2022-11-14T04:49:09.638Z,9.38
2022-11-14T04:51:37.057Z,9.61
2022-11-14T04:54:04.622Z,9.10
2022-11-14T04:56:33.423Z,9.38
2022-11-14T04:59:00.913Z,8.85
2022-11-14T05:01:28.453Z,8.84
2022-11-14T05:03:56.549Z,9.01
2022-11-14T05:06:24.083Z,8.72
2022-11-14T05:08:51.456Z,8.76
2022-11-14T05:11:23.188Z,8.70
2022-11-14T05:13:55.368Z,8.61
2022-11-14T05:16:22.745Z,8.77
2022-11-14T05:18:50.172Z,8.87
2022-11-14T05:21:17.579Z,8.82
2022-11-14T05:23:45.008Z,8.83
2022-11-14T05:26:15.191Z,8.72
2022-11-14T05:28:42.617Z,9.07
2022-11-14T05:31:13.541Z,8.58
2022-11-14T05:33:40.990Z,8.74
2022-11-14T05:36:10.703Z,8.76
2022-11-14T05:38:38.234Z,8.47
2022-11-14T05:41:09.466Z,8.93
2022-11-14T05:43:37.349Z,8.89
2022-11-14T05:46:06.873Z,8.57
2022-11-14T05:48:35.608Z,8.86
2022-11-14T05:51:05.173Z,8.72
2022-11-14T05:53:34.145Z,8.17
2022-11-14T05:56:02.354Z,8.69
2022-11-14T05:58:30.222Z,9.21
2022-11-14T06:01:03.026Z,8.80
2022-11-14T06:03:32.660Z,8.35
2022-11-14T06:06:03.011Z,8.21
2022-11-14T06:08:31.233Z,8.31
2022-11-14T06:11:03.275Z,7.60
2022-11-14T06:13:31.083Z,8.00
2022-11-14T06:16:01.209Z,8.28
2022-11-14T06:18:29.336Z,8.51
2022-11-14T06:21:00.132Z,7.97
2022-11-14T06:23:29.115Z,8.76
2022-11-14T06:26:00.498Z,8.95
2022-11-14T06:28:28.309Z,8.31
2022-11-14T06:30:59.277Z,7.90
2022-11-14T06:33:26.780Z,8.07
2022-11-14T06:35:59.093Z,8.30
2022-11-14T06:38:26.625Z,7.97
2022-11-14T06:41:02.642Z,8.34
2022-11-14T06:43:30.032Z,8.34
2022-11-14T06:45:57.522Z,8.35
2022-11-14T06:48:24.952Z,7.94
2022-11-14T06:50:53.519Z,8.45
2022-11-14T06:53:21.074Z,8.13
2022-11-14T06:55:55.940Z,8.03
2022-11-14T06:58:23.331Z,8.62
2022-11-14T07:00:50.790Z,8.10
2022-11-14T07:03:18.259Z,7.65
2022-11-14T07:05:45.921Z,7.46
2022-11-14T07:08:16.044Z,7.61
2022-11-14T07:10:47.238Z,8.09
2022-11-14T07:13:15.992Z,7.93
2022-11-14T07:15:50.649Z,8.43
2022-11-14T07:18:18.054Z,8.30
2022-11-14T07:20:45.471Z,7.81
2022-11-14T07:23:12.911Z,8.77
2022-11-14T07:25:40.273Z,8.35
2022-11-14T07:28:08.075Z,8.13
2022-11-14T07:30:36.795Z,8.11
2022-11-14T07:33:04.346Z,8.02
2022-11-14T07:35:31.811Z,8.28
2022-11-14T07:38:03.432Z,8.27
2022-11-14T07:40:30.859Z,8.11
2022-11-14T07:42:59.986Z,8.55
2022-11-14T07:45:27.722Z,9.14
2022-11-14T07:47:58.214Z,8.84
2022-11-14T07:50:25.651Z,8.56
2022-11-14T07:52:53.977Z,8.50
2022-11-14T07:55:22.020Z,8.80
2022-11-14T07:57:49.773Z,8.88
2022-11-14T08:00:17.938Z,8.30
2022-11-14T08:02:46.735Z,8.29
2022-11-14T08:05:15.440Z,8.41
2022-11-14T08:07:42.873Z,7.76
2022-11-14T08:10:11.929Z,7.96
2022-11-14T08:12:39.541Z,8.24
2022-11-14T08:15:08.868Z,7.86
2022-11-14T08:17:36.898Z,7.85
2022-11-14T08:20:05.211Z,8.47
2022-11-14T08:22:34.136Z,8.68
2022-11-14T08:25:01.629Z,8.72
2022-11-14T08:27:29.012Z,9.42
2022-11-14T08:29:56.444Z,9.57
2022-11-14T08:32:23.839Z,9.66
2022-11-14T08:34:51.324Z,9.51
2022-11-14T08:37:18.744Z,9.04
2022-11-14T08:39:47.471Z,9.07
2022-11-14T08:42:14.870Z,9.11
2022-11-14T08:44:42.236Z,8.68
2022-11-14T08:47:09.717Z,8.69
2022-11-14T08:49:37.101Z,8.36
2022-11-14T08:52:04.753Z,8.31
2022-11-14T08:54:32.448Z,8.60
2022-11-14T08:57:01.230Z,8.69
2022-11-14T08:59:28.651Z,8.76
2022-11-14T09:01:56.176Z,8.48
2022-11-14T09:04:23.903Z,9.21
2022-11-14T09:06:51.840Z,9.22
2022-11-14T09:09:19.298Z,8.94
2022-11-14T09:11:46.702Z,9.40
2022-11-14T09:14:15.478Z,9.85
2022-11-14T09:16:42.897Z,9.07
2022-11-14T09:19:10.405Z,9.41
2022-11-14T09:21:37.801Z,8.96
2022-11-14T09:24:05.410Z,9.28
2022-11-14T09:26:32.935Z,8.78
2022-11-14T09:29:00.904Z,8.60
2022-11-14T09:31:30.064Z,8.72
2022-11-14T09:33:57.483Z,9.12
2022-11-14T09:36:24.877Z,9.72
2022-11-14T09:38:53.030Z,9.82
2022-11-14T09:41:25.705Z,12.11
2022-11-14T09:44:33.691Z,12.56
2022-11-14T09:47:06.765Z,10.71
2022-11-14T09:49:38.703Z,12.25
2022-11-14T09:52:16.603Z,12.88
2022-11-14T09:54:51.149Z,10.73
2022-11-14T09:57:21.138Z,10.33
2022-11-14T09:59:49.124Z,11.04
2022-11-14T10:02:28.305Z,10.66
2022-11-14T10:05:10.699Z,11.07
2022-11-14T10:07:47.509Z,10.04
2022-11-14T10:10:26.230Z,9.67
2022-11-14T10:13:04.541Z,9.70
2022-11-14T10:15:38.051Z,9.89
2022-11-14T10:18:23.180Z,9.99
2022-11-14T10:20:55.345Z,10.40
2022-11-14T10:23:35.614Z,11.26
2022-11-14T10:26:12.796Z,11.72
2022-11-14T10:28:48.938Z,11.70
2022-11-14T10:31:26.281Z,11.48
2022-11-14T10:34:02.560Z,11.22
2022-11-14T10:36:48.094Z,10.99
2022-11-14T10:39:21.185Z,10.72
2022-11-14T10:42:03.183Z,11.13
2022-11-14T10:44:40.392Z,11.24
2022-11-14T10:47:13.971Z,10.79
2022-11-14T10:49:44.044Z,11.13
2022-11-14T10:52:15.710Z,10.69
2022-11-14T10:54:47.451Z,10.52
2022-11-14T10:57:17.252Z,10.99
2022-11-14T10:59:44.701Z,11.11
2022-11-14T11:02:12.495Z,11.28
2022-11-14T11:04:41.403Z,11.27
2022-11-14T11:07:42.455Z,11.06
2022-11-14T11:10:39.948Z,11.68
2022-11-14T11:13:07.415Z,11.23
2022-11-14T11:15:41.789Z,11.31
2022-11-14T11:18:26.493Z,11.34
2022-11-14T11:21:06.038Z,11.05
2022-11-14T11:23:35.576Z,11.25
2022-11-14T11:26:05.829Z,11.59
2022-11-14T11:28:34.721Z,11.44
2022-11-14T11:31:04.164Z,11.25
2022-11-14T11:33:35.454Z,10.80
2022-11-14T11:36:06.652Z,11.33
2022-11-14T11:38:35.540Z,11.18
2022-11-14T11:41:26.033Z,10.95
2022-11-14T11:44:05.828Z,11.94
2022-11-14T11:46:48.049Z,11.75
2022-11-14T11:49:20.064Z,11.83
2022-11-14T11:51:51.287Z,11.63
2022-11-14T11:54:24.117Z,11.64
2022-11-14T11:56:57.978Z,11.25
2022-11-14T11:59:34.392Z,11.64
2022-11-14T12:02:04.339Z,12.41
2022-11-14T12:04:31.859Z,11.66
2022-11-14T12:07:13.383Z,11.79
2022-11-14T12:10:09.283Z,11.83
2022-11-14T12:12:44.066Z,11.94
2022-11-14T12:15:25.106Z,12.52
2022-11-14T12:18:13.342Z,12.86
2022-11-14T12:20:54.005Z,12.84
2022-11-14T12:23:38.608Z,12.65
2022-11-14T12:26:24.137Z,12.24
2022-11-14T12:29:08.689Z,12.26
2022-11-14T12:31:39.232Z,12.34
2022-11-14T12:34:15.348Z,11.84
2022-11-14T12:36:45.239Z,12.62
2022-11-14T12:39:23.676Z,12.14
2022-11-14T12:42:02.747Z,12.29
2022-11-14T12:44:38.472Z,12.69
2022-11-14T12:47:20.313Z,12.69
2022-11-14T12:50:03.074Z,13.17
2022-11-14T12:52:45.542Z,12.27
2022-11-14T12:55:48.939Z,12.73
2022-11-14T12:58:25.660Z,13.12
2022-11-14T13:01:09.505Z,12.78
2022-11-14T13:03:53.281Z,12.18
2022-11-14T13:06:25.769Z,12.75
2022-11-14T13:09:24.418Z,13.24
2022-11-14T13:12:09.363Z,13.21
2022-11-14T13:15:08.610Z,13.08
2022-11-14T13:17:53.918Z,12.87
2022-11-14T13:20:46.180Z,12.84
2022-11-14T13:23:50.811Z,12.45
2022-11-14T13:26:37.134Z,12.48
2022-11-14T13:29:04.763Z,13.07
2022-11-14T13:31:55.846Z,13.19
2022-11-14T13:34:34.899Z,12.88
2022-11-14T13:37:13.922Z,13.16
2022-11-14T13:39:49.271Z,12.92
2022-11-14T13:42:36.666Z,13.23
2022-11-14T13:45:38.650Z,12.78
2022-11-14T13:48:47.206Z,12.57
2022-11-14T13:54:17.187Z,12.23
2022-11-14T13:56:58.342Z,12.32
2022-11-14T13:59:49.164Z,12.85
2022-11-14T14:02:35.803Z,12.56
2022-11-14T14:05:17.777Z,12.92
2022-11-14T14:07:59.237Z,12.34
2022-11-14T14:10:30.877Z,12.96
2022-11-14T14:13:13.723Z,13.08
2022-11-14T14:15:47.597Z,13.17
2022-11-14T14:18:24.654Z,13.15
2022-11-14T14:21:05.107Z,12.35
2022-11-14T14:23:41.887Z,12.73
2022-11-14T14:26:22.162Z,12.95
2022-11-14T14:28:56.378Z,12.98
2022-11-14T14:31:24.167Z,13.11
2022-11-14T14:33:53.338Z,12.79
2022-11-14T14:36:25.726Z,12.57
2022-11-14T14:39:13.866Z,12.79
2022-11-14T14:41:42.156Z,12.66
2022-11-14T14:44:21.194Z,12.65
2022-11-14T14:46:49.026Z,12.77
2022-11-14T14:49:22.591Z,12.40
2022-11-14T14:51:55.831Z,12.46
2022-11-14T14:54:26.937Z,12.68
2022-11-14T14:56:56.501Z,12.91
2022-11-14T14:59:26.089Z,12.91
2022-11-14T15:01:55.746Z,13.20
2022-11-14T15:04:25.578Z,13.19
2022-11-14T15:06:57.447Z,13.15
2022-11-14T15:09:27.202Z,13.28
2022-11-14T15:11:58.615Z,13.07
2022-11-14T15:14:29.897Z,13.08
2022-11-14T15:16:58.798Z,12.91
2022-11-14T15:19:29.790Z,13.08
2022-11-14T15:22:06.994Z,12.60
2022-11-14T15:24:34.599Z,12.72
2022-11-14T15:27:05.661Z,12.68
2022-11-14T15:29:33.516Z,12.69
2022-11-14T15:32:03.238Z,12.48
2022-11-14T15:34:32.534Z,12.58
2022-11-14T15:37:22.133Z,12.49
2022-11-14T15:39:49.628Z,12.66
2022-11-14T15:42:20.963Z,12.67
2022-11-14T15:44:49.427Z,12.49
2022-11-14T15:47:23.140Z,11.94
2022-11-14T15:49:58.274Z,12.09
2022-11-14T15:52:31.861Z,12.15
2022-11-14T15:54:59.284Z,12.17
2022-11-14T15:57:26.710Z,12.32
2022-11-14T15:59:54.086Z,12.03
2022-11-14T16:02:23.438Z,11.75
2022-11-14T16:04:52.200Z,11.94
2022-11-14T16:07:20.195Z,11.84
2022-11-14T16:09:49.283Z,11.93
2022-11-14T16:12:17.022Z,12.32
2022-11-14T16:14:44.952Z,12.05
2022-11-14T16:17:14.817Z,12.34
2022-11-14T16:19:42.656Z,11.93
2022-11-14T16:22:12.724Z,12.03
2022-11-14T16:24:40.676Z,12.16
2022-11-14T16:27:09.571Z,12.31
2022-11-14T16:29:36.966Z,12.07
2022-11-14T16:32:04.475Z,12.43
2022-11-14T16:34:31.896Z,12.50
2022-11-14T16:37:00.742Z,12.55
2022-11-14T16:39:28.322Z,12.42
2022-11-14T16:42:01.729Z,12.17
2022-11-14T16:44:34.568Z,12.19
2022-11-14T16:47:06.406Z,12.15
2022-11-14T16:49:33.780Z,12.08
2022-11-14T16:52:05.477Z,12.14
2022-11-14T16:54:33.141Z,12.15
2022-11-14T16:57:00.583Z,12.24
2022-11-14T16:59:28.054Z,12.25
2022-11-14T17:01:56.811Z,12.41
2022-11-14T17:04:24.362Z,12.13
2022-11-14T17:06:51.912Z,12.05
2022-11-14T17:09:19.350Z,12.29
2022-11-14T17:11:46.805Z,11.60
2022-11-14T17:14:14.266Z,12.00
2022-11-14T17:16:41.702Z,11.70
2022-11-14T17:19:10.474Z,12.03
2022-11-14T17:21:37.920Z,11.76
2022-11-14T17:24:06.003Z,11.83
2022-11-14T17:26:33.380Z,11.76
2022-11-14T17:29:00.761Z,11.83
2022-11-14T17:31:28.158Z,11.97
2022-11-14T17:33:57.049Z,11.71
2022-11-14T17:36:28.483Z,11.80
2022-11-14T17:38:56.537Z,11.69
2022-11-14T17:41:24.166Z,11.56
2022-11-14T17:43:53.699Z,10.87
2022-11-14T17:46:21.164Z,11.31
2022-11-14T17:48:48.647Z,11.49
2022-11-14T17:51:17.349Z,11.61
2022-11-14T17:53:46.067Z,11.56
2022-11-14T17:56:15.643Z,11.12
2022-11-14T17:58:43.580Z,11.32
2022-11-14T18:01:12.073Z,11.04
2022-11-14T18:03:39.829Z,11.53
2022-11-14T18:06:08.791Z,11.23
2022-11-14T18:08:36.680Z,11.37
2022-11-14T18:11:07.284Z,11.49
2022-11-14T18:13:35.204Z,11.51
2022-11-14T18:16:03.803Z,11.39
2022-11-14T18:18:32.696Z,11.17
2022-11-14T18:21:07.504Z,10.92
2022-11-14T18:23:36.004Z,11.17
2022-11-14T18:26:11.015Z,11.39
2022-11-14T18:28:38.401Z,11.56
2022-11-14T18:31:07.479Z,11.62
2022-11-14T18:33:35.766Z,11.39
2022-11-14T18:36:04.479Z,11.24
2022-11-14T18:38:33.295Z,11.34
2022-11-14T18:41:03.373Z,10.60
2022-11-14T18:43:33.213Z,11.09
2022-11-14T18:46:05.873Z,11.50
2022-11-14T18:48:33.480Z,11.58
2022-11-14T18:51:05.661Z,11.32
2022-11-14T18:53:33.467Z,11.24
2022-11-14T18:56:04.350Z,11.54
2022-11-14T18:58:33.663Z,11.48
2022-11-14T19:01:09.603Z,11.45
2022-11-14T19:03:37.063Z,11.54
2022-11-14T19:06:06.052Z,11.53
2022-11-14T19:08:33.489Z,11.57
2022-11-14T19:11:01.948Z,11.43
2022-11-14T19:13:29.669Z,11.18
2022-11-14T19:16:03.069Z,11.33
2022-11-14T19:18:31.203Z,11.40
2022-11-14T19:20:59.505Z,11.35
2022-11-14T19:23:27.015Z,11.38
2022-11-14T19:26:00.199Z,11.41
2022-11-14T19:28:29.229Z,11.35
2022-11-14T19:31:02.976Z,11.26
2022-11-14T19:33:30.776Z,11.10
2022-11-14T19:35:58.518Z,10.98
2022-11-14T19:38:26.106Z,10.32
2022-11-14T19:40:53.525Z,11.05
2022-11-14T19:43:21.708Z,10.85
2022-11-14T19:45:49.454Z,10.94
2022-11-14T19:48:18.302Z,10.80
2022-11-14T19:50:45.666Z,10.93
2022-11-14T19:53:13.062Z,10.98
2022-11-14T19:55:40.479Z,10.89
2022-11-14T19:58:07.923Z,11.06
2022-11-14T20:00:35.312Z,10.91
2022-11-14T20:03:04.674Z,11.09
2022-11-14T20:05:34.501Z,10.82
2022-11-14T20:08:02.000Z,10.91
2022-11-14T20:10:29.402Z,10.87
2022-11-14T20:12:56.963Z,11.02
2022-11-14T20:15:24.388Z,10.98
2022-11-14T20:17:52.003Z,10.78
2022-11-14T20:20:19.462Z,10.82
2022-11-14T20:22:48.452Z,10.80
2022-11-14T20:25:20.185Z,10.96
2022-11-14T20:27:49.088Z,10.96
2022-11-14T20:30:17.000Z,10.88
2022-11-14T20:32:44.755Z,11.09
2022-11-14T20:35:12.335Z,10.89
2022-11-14T20:37:39.976Z,10.90
2022-11-14T20:40:09.955Z,10.87
2022-11-14T20:42:37.405Z,11.09
2022-11-14T20:45:05.567Z,11.02
2022-11-14T20:47:33.799Z,10.73
2022-11-14T20:50:03.499Z,10.45
2022-11-14T20:52:30.998Z,10.74
2022-11-14T20:54:58.483Z,10.81
2022-11-14T20:57:27.318Z,11.00
2022-11-14T20:59:57.122Z,11.00
2022-11-14T21:02:24.600Z,10.92
2022-11-14T21:04:54.741Z,10.99
2022-11-14T21:07:22.146Z,10.86
2022-11-14T21:10:10.369Z,10.54
2022-11-14T21:12:44.486Z,10.71
2022-11-14T21:15:14.384Z,9.83
2022-11-14T21:17:41.998Z,10.33
2022-11-14T21:20:13.231Z,10.65
2022-11-14T21:22:40.643Z,10.22
2022-11-14T21:25:08.890Z,10.58
2022-11-14T21:27:36.316Z,10.50
2022-11-14T21:30:06.006Z,10.63
2022-11-14T21:32:36.213Z,10.81
2022-11-14T21:35:09.424Z,10.69
2022-11-14T21:37:37.181Z,10.60
2022-11-14T21:40:05.105Z,10.08
2022-11-14T21:42:33.056Z,10.45
2022-11-14T21:45:00.477Z,10.45
2022-11-14T21:47:29.330Z,10.39
2022-11-14T21:50:00.957Z,10.20
2022-11-14T21:52:28.663Z,10.41
2022-11-14T21:54:56.209Z,10.50
2022-11-14T21:57:25.273Z,10.67
2022-11-14T21:59:52.727Z,10.48
2022-11-14T22:02:37.958Z,10.54
2022-11-14T22:05:08.190Z,10.49
2022-11-14T22:07:35.711Z,10.53
2022-11-14T22:10:03.188Z,10.31
2022-11-14T22:12:30.604Z,10.03
2022-11-14T22:14:58.147Z,10.27
2022-11-14T22:17:25.660Z,10.46
2022-11-14T22:19:53.087Z,10.29
2022-11-14T22:22:22.432Z,10.38
2022-11-14T22:24:49.847Z,10.34
2022-11-14T22:27:17.405Z,10.44
2022-11-14T22:29:45.519Z,10.44
2022-11-14T22:32:13.023Z,10.32
2022-11-14T22:34:40.650Z,10.42
2022-11-14T22:37:11.103Z,10.43
2022-11-14T22:39:39.808Z,10.54
2022-11-14T22:42:09.074Z,10.06
2022-11-14T22:44:36.463Z,10.33
2022-11-14T22:47:03.894Z,10.27
2022-11-14T22:49:31.271Z,10.33
2022-11-14T22:51:58.900Z,10.30
2022-11-14T22:54:26.378Z,10.17
2022-11-14T22:56:55.073Z,10.13
2022-11-14T22:59:22.535Z,10.31
2022-11-14T23:01:50.280Z,10.14
2022-11-14T23:04:17.921Z,10.20
2022-11-14T23:06:45.500Z,10.19
2022-11-14T23:09:18.330Z,10.16
2022-11-14T23:11:45.703Z,10.14
2022-11-14T23:14:14.996Z,10.03
2022-11-14T23:16:42.635Z,10.10
2022-11-14T23:19:10.250Z,10.21
2022-11-14T23:21:38.768Z,10.25
2022-11-14T23:24:08.665Z,10.22
2022-11-14T23:26:36.781Z,10.14
2022-11-14T23:29:05.229Z,10.05
2022-11-14T23:31:34.254Z,10.24
2022-11-14T23:34:01.827Z,9.96
2022-11-14T23:36:29.434Z,10.10
2022-11-14T23:38:56.983Z,9.98
2022-11-14T23:41:26.319Z,10.06
2022-11-14T23:43:53.990Z,10.14
2022-11-14T23:46:21.671Z,9.87
2022-11-14T23:48:51.343Z,9.66
2022-11-14T23:51:18.851Z,9.82
2022-11-14T23:53:46.863Z,9.75
2022-11-14T23:56:15.127Z,10.08
2022-11-14T23:58:43.164Z,10.09
